sensor_id;sensor_type;location;lat;lon;timestamp;P1;durP1;ratioP1;P2;durP2;ratioP2
60030;SDS011;45901;47.600;9.890;2023-03-14T00:01:11;1.40;;;0.50;;
60030;SDS011;45901;47.600;9.890;2023-03-14T00:03:40;2.20;;;0.50;;
60030;SDS011;45901;47.600;9.890;2023-03-14T00:06:08;0.80;;;0.40;;
60030;SDS011;45901;47.600;9.890;2023-03-14T00:08:36;1.00;;;0.37;;
60030;SDS011;45901;47.600;9.890;2023-03-14T00:11:06;0.30;;;0.20;;
60030;SDS011;45901;47.600;9.890;2023-03-14T00:13:35;0.20;;;0.10;;
60030;SDS011;45901;47.600;9.890;2023-03-14T00:16:03;0.93;;;0.33;;
60030;SDS011;45901;47.600;9.890;2023-03-14T00:18:32;0.47;;;0.20;;
60030;SDS011;45901;47.600;9.890;2023-03-14T00:21:00;0.50;;;0.20;;
60030;SDS011;45901;47.600;9.890;2023-03-14T00:23:29;3.40;;;0.30;;
60030;SDS011;45901;47.600;9.890;2023-03-14T00:25:59;0.83;;;0.20;;
60030;SDS011;45901;47.600;9.890;2023-03-14T00:28:29;0.60;;;0.20;;
60030;SDS011;45901;47.600;9.890;2023-03-14T00:30:56;0.90;;;0.30;;
60030;SDS011;45901;47.600;9.890;2023-03-14T00:33:24;2.63;;;0.30;;
60030;SDS011;45901;47.600;9.890;2023-03-14T00:35:52;0.60;;;0.20;;
60030;SDS011;45901;47.600;9.890;2023-03-14T00:38:21;0.60;;;0.17;;
60030;SDS011;45901;47.600;9.890;2023-03-14T00:40:49;1.40;;;0.10;;
60030;SDS011;45901;47.600;9.890;2023-03-14T00:43:17;0.47;;;0.10;;
60030;SDS011;45901;47.600;9.890;2023-03-14T00:45:49;1.83;;;0.10;;
60030;SDS011;45901;47.600;9.890;2023-03-14T00:48:18;0.13;;;0.10;;
60030;SDS011;45901;47.600;9.890;2023-03-14T00:50:46;1.33;;;0.10;;
60030;SDS011;45901;47.600;9.890;2023-03-14T00:53:13;1.90;;;0.10;;
60030;SDS011;45901;47.600;9.890;2023-03-14T00:55:41;0.83;;;0.10;;
60030;SDS011;45901;47.600;9.890;2023-03-14T00:58:09;0.37;;;0.10;;
60030;SDS011;45901;47.600;9.890;2023-03-14T01:00:38;0.50;;;0.10;;
60030;SDS011;45901;47.600;9.890;2023-03-14T01:03:07;0.10;;;0.10;;
60030;SDS011;45901;47.600;9.890;2023-03-14T01:05:35;2.23;;;0.30;;
60030;SDS011;45901;47.600;9.890;2023-03-14T01:08:03;0.10;;;0.10;;
60030;SDS011;45901;47.600;9.890;2023-03-14T01:10:33;0.57;;;0.30;;
60030;SDS011;45901;47.600;9.890;2023-03-14T01:13:03;0.57;;;0.10;;
60030;SDS011;45901;47.600;9.890;2023-03-14T01:15:31;0.10;;;0.10;;
60030;SDS011;45901;47.600;9.890;2023-03-14T01:17:58;0.60;;;0.20;;
60030;SDS011;45901;47.600;9.890;2023-03-14T01:20:27;0.23;;;0.17;;
60030;SDS011;45901;47.600;9.890;2023-03-14T01:22:54;0.93;;;0.17;;
60030;SDS011;45901;47.600;9.890;2023-03-14T01:25:22;0.87;;;0.20;;
60030;SDS011;45901;47.600;9.890;2023-03-14T01:27:49;0.00;;;0.00;;
60030;SDS011;45901;47.600;9.890;2023-03-14T01:30:16;0.90;;;0.20;;
60030;SDS011;45901;47.600;9.890;2023-03-14T01:32:44;1.07;;;0.10;;
60030;SDS011;45901;47.600;9.890;2023-03-14T01:35:11;1.00;;;0.20;;
60030;SDS011;45901;47.600;9.890;2023-03-14T01:37:39;0.30;;;0.17;;
60030;SDS011;45901;47.600;9.890;2023-03-14T01:40:09;0.07;;;0.07;;
60030;SDS011;45901;47.600;9.890;2023-03-14T01:42:44;0.20;;;0.10;;
60030;SDS011;45901;47.600;9.890;2023-03-14T01:48:39;3.40;;;0.37;;
60030;SDS011;45901;47.600;9.890;2023-03-14T01:51:12;0.10;;;0.10;;
60030;SDS011;45901;47.600;9.890;2023-03-14T01:53:49;0.50;;;0.20;;
60030;SDS011;45901;47.600;9.890;2023-03-14T01:56:20;0.43;;;0.10;;
60030;SDS011;45901;47.600;9.890;2023-03-14T01:58:48;0.90;;;0.20;;
60030;SDS011;45901;47.600;9.890;2023-03-14T02:01:19;0.23;;;0.10;;
60030;SDS011;45901;47.600;9.890;2023-03-14T02:03:52;0.30;;;0.10;;
60030;SDS011;45901;47.600;9.890;2023-03-14T02:06:23;0.47;;;0.10;;
60030;SDS011;45901;47.600;9.890;2023-03-14T02:08:56;2.17;;;0.20;;
60030;SDS011;45901;47.600;9.890;2023-03-14T02:11:23;0.20;;;0.10;;
60030;SDS011;45901;47.600;9.890;2023-03-14T02:13:55;0.43;;;0.20;;
60030;SDS011;45901;47.600;9.890;2023-03-14T02:16:24;0.30;;;0.10;;
60030;SDS011;45901;47.600;9.890;2023-03-14T02:18:51;0.63;;;0.10;;
60030;SDS011;45901;47.600;9.890;2023-03-14T02:21:20;0.00;;;0.00;;
60030;SDS011;45901;47.600;9.890;2023-03-14T02:24:01;0.10;;;0.00;;
60030;SDS011;45901;47.600;9.890;2023-03-14T02:26:36;0.43;;;0.10;;
60030;SDS011;45901;47.600;9.890;2023-03-14T02:29:09;0.30;;;0.10;;
60030;SDS011;45901;47.600;9.890;2023-03-14T02:31:36;0.20;;;0.10;;
60030;SDS011;45901;47.600;9.890;2023-03-14T02:34:04;0.10;;;0.10;;
60030;SDS011;45901;47.600;9.890;2023-03-14T02:36:32;0.50;;;0.10;;
60030;SDS011;45901;47.600;9.890;2023-03-14T02:39:01;0.10;;;0.10;;
60030;SDS011;45901;47.600;9.890;2023-03-14T02:41:34;0.30;;;0.10;;
60030;SDS011;45901;47.600;9.890;2023-03-14T02:44:01;0.10;;;0.10;;
60030;SDS011;45901;47.600;9.890;2023-03-14T02:46:30;0.10;;;0.00;;
60030;SDS011;45901;47.600;9.890;2023-03-14T02:48:59;0.47;;;0.10;;
60030;SDS011;45901;47.600;9.890;2023-03-14T02:51:29;0.00;;;0.00;;
60030;SDS011;45901;47.600;9.890;2023-03-14T02:53:58;1.70;;;0.10;;
60030;SDS011;45901;47.600;9.890;2023-03-14T02:56:25;0.10;;;0.00;;
60030;SDS011;45901;47.600;9.890;2023-03-14T02:58:52;0.00;;;0.00;;
60030;SDS011;45901;47.600;9.890;2023-03-14T03:01:19;0.20;;;0.00;;
60030;SDS011;45901;47.600;9.890;2023-03-14T03:03:48;0.30;;;0.00;;
60030;SDS011;45901;47.600;9.890;2023-03-14T03:06:16;0.17;;;0.00;;
60030;SDS011;45901;47.600;9.890;2023-03-14T03:08:43;0.10;;;0.00;;
60030;SDS011;45901;47.600;9.890;2023-03-14T03:11:10;0.00;;;0.00;;
60030;SDS011;45901;47.600;9.890;2023-03-14T03:13:37;0.10;;;0.00;;
60030;SDS011;45901;47.600;9.890;2023-03-14T03:16:05;0.00;;;0.00;;
60030;SDS011;45901;47.600;9.890;2023-03-14T03:18:33;0.00;;;0.00;;
60030;SDS011;45901;47.600;9.890;2023-03-14T03:21:02;0.10;;;0.10;;
60030;SDS011;45901;47.600;9.890;2023-03-14T03:23:31;0.03;;;0.00;;
60030;SDS011;45901;47.600;9.890;2023-03-14T03:25:58;0.00;;;0.00;;
60030;SDS011;45901;47.600;9.890;2023-03-14T03:28:25;0.10;;;0.00;;
60030;SDS011;45901;47.600;9.890;2023-03-14T03:30:53;0.00;;;0.00;;
60030;SDS011;45901;47.600;9.890;2023-03-14T03:33:20;0.10;;;0.10;;
60030;SDS011;45901;47.600;9.890;2023-03-14T03:35:48;0.10;;;0.10;;
60030;SDS011;45901;47.600;9.890;2023-03-14T03:38:18;0.53;;;0.00;;
60030;SDS011;45901;47.600;9.890;2023-03-14T03:40:46;0.00;;;0.00;;
60030;SDS011;45901;47.600;9.890;2023-03-14T03:43:13;0.10;;;0.10;;
60030;SDS011;45901;47.600;9.890;2023-03-14T03:45:40;0.10;;;0.00;;
60030;SDS011;45901;47.600;9.890;2023-03-14T03:48:08;0.00;;;0.00;;
60030;SDS011;45901;47.600;9.890;2023-03-14T03:50:35;0.00;;;0.00;;
60030;SDS011;45901;47.600;9.890;2023-03-14T03:53:02;0.00;;;0.00;;
60030;SDS011;45901;47.600;9.890;2023-03-14T03:55:31;0.00;;;0.00;;
60030;SDS011;45901;47.600;9.890;2023-03-14T03:57:58;0.10;;;0.10;;
60030;SDS011;45901;47.600;9.890;2023-03-14T04:00:25;0.53;;;0.10;;
60030;SDS011;45901;47.600;9.890;2023-03-14T04:02:52;0.20;;;0.10;;
60030;SDS011;45901;47.600;9.890;2023-03-14T04:05:19;1.40;;;0.20;;
60030;SDS011;45901;47.600;9.890;2023-03-14T04:07:46;0.57;;;0.17;;
60030;SDS011;45901;47.600;9.890;2023-03-14T04:10:14;0.50;;;0.20;;
60030;SDS011;45901;47.600;9.890;2023-03-14T04:12:43;0.67;;;0.30;;
60030;SDS011;45901;47.600;9.890;2023-03-14T04:15:10;1.43;;;0.50;;
60030;SDS011;45901;47.600;9.890;2023-03-14T04:17:37;1.80;;;0.60;;
60030;SDS011;45901;47.600;9.890;2023-03-14T04:20:05;2.83;;;1.30;;
60030;SDS011;45901;47.600;9.890;2023-03-14T04:22:35;0.40;;;0.20;;
60030;SDS011;45901;47.600;9.890;2023-03-14T04:25:03;0.10;;;0.10;;
60030;SDS011;45901;47.600;9.890;2023-03-14T04:27:32;0.00;;;0.00;;
60030;SDS011;45901;47.600;9.890;2023-03-14T04:30:00;0.00;;;0.00;;
60030;SDS011;45901;47.600;9.890;2023-03-14T04:32:28;0.00;;;0.00;;
60030;SDS011;45901;47.600;9.890;2023-03-14T04:34:55;0.00;;;0.00;;
60030;SDS011;45901;47.600;9.890;2023-03-14T04:37:22;0.63;;;0.00;;
60030;SDS011;45901;47.600;9.890;2023-03-14T04:39:49;0.10;;;0.10;;
60030;SDS011;45901;47.600;9.890;2023-03-14T04:42:16;0.20;;;0.10;;
60030;SDS011;45901;47.600;9.890;2023-03-14T04:44:44;0.03;;;0.00;;
60030;SDS011;45901;47.600;9.890;2023-03-14T04:47:13;0.13;;;0.07;;
60030;SDS011;45901;47.600;9.890;2023-03-14T04:49:40;0.10;;;0.10;;
60030;SDS011;45901;47.600;9.890;2023-03-14T04:52:07;0.00;;;0.00;;
60030;SDS011;45901;47.600;9.890;2023-03-14T04:54:35;0.10;;;0.10;;
60030;SDS011;45901;47.600;9.890;2023-03-14T04:57:02;0.33;;;0.30;;
60030;SDS011;45901;47.600;9.890;2023-03-14T04:59:29;0.00;;;0.00;;
60030;SDS011;45901;47.600;9.890;2023-03-14T05:01:56;0.10;;;0.00;;
60030;SDS011;45901;47.600;9.890;2023-03-14T05:04:25;0.00;;;0.00;;
60030;SDS011;45901;47.600;9.890;2023-03-14T05:06:52;0.33;;;0.07;;
60030;SDS011;45901;47.600;9.890;2023-03-14T05:09:19;0.17;;;0.00;;
60030;SDS011;45901;47.600;9.890;2023-03-14T05:11:46;0.30;;;0.10;;
60030;SDS011;45901;47.600;9.890;2023-03-14T05:14:14;0.10;;;0.10;;
60030;SDS011;45901;47.600;9.890;2023-03-14T05:16:41;0.13;;;0.13;;
60030;SDS011;45901;47.600;9.890;2023-03-14T05:19:08;0.53;;;0.30;;
60030;SDS011;45901;47.600;9.890;2023-03-14T05:21:38;2.80;;;1.30;;
60030;SDS011;45901;47.600;9.890;2023-03-14T05:24:05;2.93;;;0.97;;
60030;SDS011;45901;47.600;9.890;2023-03-14T05:26:33;1.43;;;0.60;;
60030;SDS011;45901;47.600;9.890;2023-03-14T05:29:00;3.83;;;1.30;;
60030;SDS011;45901;47.600;9.890;2023-03-14T05:31:27;2.93;;;1.00;;
60030;SDS011;45901;47.600;9.890;2023-03-14T05:33:54;2.03;;;0.90;;
60030;SDS011;45901;47.600;9.890;2023-03-14T05:36:21;1.43;;;0.50;;
60030;SDS011;45901;47.600;9.890;2023-03-14T05:38:50;1.23;;;0.70;;
60030;SDS011;45901;47.600;9.890;2023-03-14T05:41:17;1.43;;;0.50;;
60030;SDS011;45901;47.600;9.890;2023-03-14T05:43:44;1.40;;;0.27;;
60030;SDS011;45901;47.600;9.890;2023-03-14T05:46:11;1.53;;;0.40;;
60030;SDS011;45901;47.600;9.890;2023-03-14T05:48:39;1.93;;;0.60;;
60030;SDS011;45901;47.600;9.890;2023-03-14T05:51:06;1.50;;;0.60;;
60030;SDS011;45901;47.600;9.890;2023-03-14T05:53:33;0.80;;;0.30;;
60030;SDS011;45901;47.600;9.890;2023-03-14T05:56:02;0.30;;;0.30;;
60030;SDS011;45901;47.600;9.890;2023-03-14T05:58:29;0.60;;;0.50;;
60030;SDS011;45901;47.600;9.890;2023-03-14T06:00:57;1.80;;;0.70;;
60030;SDS011;45901;47.600;9.890;2023-03-14T06:03:27;2.17;;;0.80;;
60030;SDS011;45901;47.600;9.890;2023-03-14T06:05:54;1.53;;;0.33;;
60030;SDS011;45901;47.600;9.890;2023-03-14T06:08:21;0.83;;;0.30;;
60030;SDS011;45901;47.600;9.890;2023-03-14T06:10:49;1.30;;;0.30;;
60030;SDS011;45901;47.600;9.890;2023-03-14T06:13:19;0.70;;;0.23;;
60030;SDS011;45901;47.600;9.890;2023-03-14T06:15:46;3.90;;;0.30;;
60030;SDS011;45901;47.600;9.890;2023-03-14T06:18:14;0.40;;;0.30;;
60030;SDS011;45901;47.600;9.890;2023-03-14T06:20:41;0.50;;;0.30;;
60030;SDS011;45901;47.600;9.890;2023-03-14T06:23:09;1.53;;;0.33;;
60030;SDS011;45901;47.600;9.890;2023-03-14T06:25:36;0.57;;;0.30;;
60030;SDS011;45901;47.600;9.890;2023-03-14T06:28:04;1.13;;;0.70;;
60030;SDS011;45901;47.600;9.890;2023-03-14T06:30:32;0.57;;;0.30;;
60030;SDS011;45901;47.600;9.890;2023-03-14T06:33:00;2.50;;;0.80;;
60030;SDS011;45901;47.600;9.890;2023-03-14T06:35:27;0.40;;;0.30;;
60030;SDS011;45901;47.600;9.890;2023-03-14T06:37:54;0.63;;;0.40;;
60030;SDS011;45901;47.600;9.890;2023-03-14T06:40:21;3.33;;;0.50;;
60030;SDS011;45901;47.600;9.890;2023-03-14T06:42:48;1.07;;;0.60;;
60030;SDS011;45901;47.600;9.890;2023-03-14T06:45:16;0.60;;;0.50;;
60030;SDS011;45901;47.600;9.890;2023-03-14T06:47:45;0.40;;;0.40;;
60030;SDS011;45901;47.600;9.890;2023-03-14T06:50:12;0.50;;;0.50;;
60030;SDS011;45901;47.600;9.890;2023-03-14T06:52:39;2.17;;;1.30;;
60030;SDS011;45901;47.600;9.890;2023-03-14T06:55:11;2.10;;;0.87;;
60030;SDS011;45901;47.600;9.890;2023-03-14T06:57:38;1.33;;;0.50;;
60030;SDS011;45901;47.600;9.890;2023-03-14T07:00:06;0.80;;;0.60;;
60030;SDS011;45901;47.600;9.890;2023-03-14T07:02:34;1.70;;;0.40;;
60030;SDS011;45901;47.600;9.890;2023-03-14T07:05:03;1.13;;;0.40;;
60030;SDS011;45901;47.600;9.890;2023-03-14T07:07:32;3.60;;;0.40;;
60030;SDS011;45901;47.600;9.890;2023-03-14T07:09:59;0.37;;;0.17;;
60030;SDS011;45901;47.600;9.890;2023-03-14T07:12:26;0.57;;;0.20;;
60030;SDS011;45901;47.600;9.890;2023-03-14T07:14:53;1.93;;;0.10;;
60030;SDS011;45901;47.600;9.890;2023-03-14T07:17:20;1.30;;;0.30;;
60030;SDS011;45901;47.600;9.890;2023-03-14T07:19:48;4.33;;;2.27;;
60030;SDS011;45901;47.600;9.890;2023-03-14T07:22:16;6.43;;;3.17;;
60030;SDS011;45901;47.600;9.890;2023-03-14T07:24:43;14.17;;;5.20;;
60030;SDS011;45901;47.600;9.890;2023-03-14T07:27:11;6.20;;;3.20;;
60030;SDS011;45901;47.600;9.890;2023-03-14T07:29:38;5.50;;;2.70;;
60030;SDS011;45901;47.600;9.890;2023-03-14T07:32:05;3.20;;;1.60;;
60030;SDS011;45901;47.600;9.890;2023-03-14T07:34:33;1.57;;;1.10;;
60030;SDS011;45901;47.600;9.890;2023-03-14T07:37:00;3.60;;;1.40;;
60030;SDS011;45901;47.600;9.890;2023-03-14T07:39:30;3.53;;;1.57;;
60030;SDS011;45901;47.600;9.890;2023-03-14T07:41:57;1.13;;;0.80;;
60030;SDS011;45901;47.600;9.890;2023-03-14T07:44:24;1.20;;;0.30;;
60030;SDS011;45901;47.600;9.890;2023-03-14T07:46:51;1.43;;;0.20;;
60030;SDS011;45901;47.600;9.890;2023-03-14T07:49:19;0.20;;;0.10;;
60030;SDS011;45901;47.600;9.890;2023-03-14T07:51:47;0.37;;;0.20;;
60030;SDS011;45901;47.600;9.890;2023-03-14T07:54:15;1.17;;;0.40;;
60030;SDS011;45901;47.600;9.890;2023-03-14T07:56:43;1.10;;;0.30;;
60030;SDS011;45901;47.600;9.890;2023-03-14T07:59:11;3.10;;;0.57;;
60030;SDS011;45901;47.600;9.890;2023-03-14T08:01:38;1.90;;;0.60;;
60030;SDS011;45901;47.600;9.890;2023-03-14T08:04:05;1.10;;;0.50;;
60030;SDS011;45901;47.600;9.890;2023-03-14T08:06:32;1.87;;;0.70;;
60030;SDS011;45901;47.600;9.890;2023-03-14T08:09:01;1.13;;;0.70;;
60030;SDS011;45901;47.600;9.890;2023-03-14T08:11:28;1.50;;;0.40;;
60030;SDS011;45901;47.600;9.890;2023-03-14T08:13:57;1.10;;;0.40;;
60030;SDS011;45901;47.600;9.890;2023-03-14T08:16:24;2.27;;;1.00;;
60030;SDS011;45901;47.600;9.890;2023-03-14T08:18:51;1.00;;;0.60;;
60030;SDS011;45901;47.600;9.890;2023-03-14T08:21:19;1.33;;;0.40;;
60030;SDS011;45901;47.600;9.890;2023-03-14T08:23:46;2.20;;;0.67;;
60030;SDS011;45901;47.600;9.890;2023-03-14T08:26:13;1.67;;;0.60;;
60030;SDS011;45901;47.600;9.890;2023-03-14T08:28:40;1.37;;;0.40;;
60030;SDS011;45901;47.600;9.890;2023-03-14T08:31:09;0.63;;;0.40;;
60030;SDS011;45901;47.600;9.890;2023-03-14T08:33:36;2.00;;;0.67;;
60030;SDS011;45901;47.600;9.890;2023-03-14T08:36:03;1.93;;;0.60;;
60030;SDS011;45901;47.600;9.890;2023-03-14T08:38:31;0.93;;;0.53;;
60030;SDS011;45901;47.600;9.890;2023-03-14T08:40:59;1.67;;;0.80;;
60030;SDS011;45901;47.600;9.890;2023-03-14T08:43:28;0.90;;;0.50;;
60030;SDS011;45901;47.600;9.890;2023-03-14T08:45:57;2.47;;;0.47;;
60030;SDS011;45901;47.600;9.890;2023-03-14T08:48:26;2.10;;;0.50;;
60030;SDS011;45901;47.600;9.890;2023-03-14T08:50:55;1.50;;;0.53;;
60030;SDS011;45901;47.600;9.890;2023-03-14T08:53:23;1.07;;;0.67;;
60030;SDS011;45901;47.600;9.890;2023-03-14T08:55:53;0.30;;;0.20;;
60030;SDS011;45901;47.600;9.890;2023-03-14T08:58:21;0.00;;;0.00;;
60030;SDS011;45901;47.600;9.890;2023-03-14T09:00:48;0.93;;;0.30;;
60030;SDS011;45901;47.600;9.890;2023-03-14T09:03:16;0.33;;;0.10;;
60030;SDS011;45901;47.600;9.890;2023-03-14T09:05:44;2.63;;;0.20;;
60030;SDS011;45901;47.600;9.890;2023-03-14T09:08:11;0.10;;;0.10;;
60030;SDS011;45901;47.600;9.890;2023-03-14T09:10:39;0.20;;;0.20;;
60030;SDS011;45901;47.600;9.890;2023-03-14T09:13:06;0.57;;;0.13;;
60030;SDS011;45901;47.600;9.890;2023-03-14T09:15:33;0.87;;;0.20;;
60030;SDS011;45901;47.600;9.890;2023-03-14T09:18:00;0.10;;;0.10;;
60030;SDS011;45901;47.600;9.890;2023-03-14T09:20:28;1.17;;;0.47;;
60030;SDS011;45901;47.600;9.890;2023-03-14T09:22:56;0.57;;;0.30;;
60030;SDS011;45901;47.600;9.890;2023-03-14T09:25:23;0.60;;;0.30;;
60030;SDS011;45901;47.600;9.890;2023-03-14T09:27:51;0.50;;;0.20;;
60030;SDS011;45901;47.600;9.890;2023-03-14T09:30:18;0.60;;;0.30;;
60030;SDS011;45901;47.600;9.890;2023-03-14T09:32:45;2.23;;;0.40;;
60030;SDS011;45901;47.600;9.890;2023-03-14T09:35:13;0.47;;;0.10;;
60030;SDS011;45901;47.600;9.890;2023-03-14T09:37:40;2.27;;;1.07;;
60030;SDS011;45901;47.600;9.890;2023-03-14T09:40:11;1.17;;;0.50;;
60030;SDS011;45901;47.600;9.890;2023-03-14T09:42:41;0.97;;;0.30;;
60030;SDS011;45901;47.600;9.890;2023-03-14T09:45:11;0.63;;;0.10;;
60030;SDS011;45901;47.600;9.890;2023-03-14T09:47:51;2.70;;;0.40;;
60030;SDS011;45901;47.600;9.890;2023-03-14T09:50:19;0.27;;;0.10;;
60030;SDS011;45901;47.600;9.890;2023-03-14T09:52:48;0.80;;;0.10;;
60030;SDS011;45901;47.600;9.890;2023-03-14T09:55:20;0.40;;;0.20;;
60030;SDS011;45901;47.600;9.890;2023-03-14T09:57:49;0.37;;;0.20;;
60030;SDS011;45901;47.600;9.890;2023-03-14T10:00:23;1.23;;;0.20;;
60030;SDS011;45901;47.600;9.890;2023-03-14T10:02:54;0.80;;;0.20;;
60030;SDS011;45901;47.600;9.890;2023-03-14T10:05:24;0.27;;;0.13;;
60030;SDS011;45901;47.600;9.890;2023-03-14T10:07:53;0.17;;;0.10;;
60030;SDS011;45901;47.600;9.890;2023-03-14T10:10:22;3.90;;;0.30;;
60030;SDS011;45901;47.600;9.890;2023-03-14T10:12:55;0.47;;;0.27;;
60030;SDS011;45901;47.600;9.890;2023-03-14T10:15:25;0.67;;;0.30;;
60030;SDS011;45901;47.600;9.890;2023-03-14T10:17:58;1.53;;;0.20;;
60030;SDS011;45901;47.600;9.890;2023-03-14T10:20:31;0.73;;;0.20;;
60030;SDS011;45901;47.600;9.890;2023-03-14T10:23:01;2.13;;;0.30;;
60030;SDS011;45901;47.600;9.890;2023-03-14T10:25:33;2.73;;;0.20;;
60030;SDS011;45901;47.600;9.890;2023-03-14T10:28:03;1.23;;;0.27;;
60030;SDS011;45901;47.600;9.890;2023-03-14T10:30:38;0.37;;;0.20;;
60030;SDS011;45901;47.600;9.890;2023-03-14T10:33:10;0.77;;;0.27;;
60030;SDS011;45901;47.600;9.890;2023-03-14T10:35:52;0.20;;;0.10;;
60030;SDS011;45901;47.600;9.890;2023-03-14T10:38:22;0.23;;;0.13;;
60030;SDS011;45901;47.600;9.890;2023-03-14T10:40:53;2.03;;;0.40;;
60030;SDS011;45901;47.600;9.890;2023-03-14T10:43:23;0.50;;;0.23;;
60030;SDS011;45901;47.600;9.890;2023-03-14T10:45:54;1.47;;;0.50;;
60030;SDS011;45901;47.600;9.890;2023-03-14T10:48:25;0.37;;;0.23;;
60030;SDS011;45901;47.600;9.890;2023-03-14T10:50:59;0.20;;;0.20;;
60030;SDS011;45901;47.600;9.890;2023-03-14T10:53:39;1.17;;;0.30;;
60030;SDS011;45901;47.600;9.890;2023-03-14T10:56:12;4.13;;;0.40;;
60030;SDS011;45901;47.600;9.890;2023-03-14T10:58:41;1.77;;;0.30;;
60030;SDS011;45901;47.600;9.890;2023-03-14T11:01:17;0.57;;;0.30;;
60030;SDS011;45901;47.600;9.890;2023-03-14T11:04:05;0.60;;;0.27;;
60030;SDS011;45901;47.600;9.890;2023-03-14T11:06:48;1.70;;;0.23;;
60030;SDS011;45901;47.600;9.890;2023-03-14T11:09:23;1.57;;;0.40;;
60030;SDS011;45901;47.600;9.890;2023-03-14T11:12:00;0.77;;;0.37;;
60030;SDS011;45901;47.600;9.890;2023-03-14T11:14:43;0.20;;;0.20;;
60030;SDS011;45901;47.600;9.890;2023-03-14T11:17:16;0.47;;;0.30;;
60030;SDS011;45901;47.600;9.890;2023-03-14T11:19:56;2.60;;;0.40;;
60030;SDS011;45901;47.600;9.890;2023-03-14T11:22:37;0.47;;;0.20;;
60030;SDS011;45901;47.600;9.890;2023-03-14T11:25:13;0.83;;;0.30;;
60030;SDS011;45901;47.600;9.890;2023-03-14T11:27:56;0.40;;;0.20;;
60030;SDS011;45901;47.600;9.890;2023-03-14T11:30:34;0.33;;;0.23;;
60030;SDS011;45901;47.600;9.890;2023-03-14T11:33:13;3.13;;;0.40;;
60030;SDS011;45901;47.600;9.890;2023-03-14T11:35:44;0.10;;;0.10;;
60030;SDS011;45901;47.600;9.890;2023-03-14T11:38:26;0.30;;;0.20;;
60030;SDS011;45901;47.600;9.890;2023-03-14T11:41:00;0.37;;;0.23;;
60030;SDS011;45901;47.600;9.890;2023-03-14T11:43:29;0.47;;;0.30;;
60030;SDS011;45901;47.600;9.890;2023-03-14T11:46:04;0.80;;;0.40;;
60030;SDS011;45901;47.600;9.890;2023-03-14T11:48:38;1.27;;;0.30;;
60030;SDS011;45901;47.600;9.890;2023-03-14T11:51:12;1.90;;;0.27;;
60030;SDS011;45901;47.600;9.890;2023-03-14T11:53:48;0.40;;;0.20;;
60030;SDS011;45901;47.600;9.890;2023-03-14T11:56:26;0.87;;;0.40;;
60030;SDS011;45901;47.600;9.890;2023-03-14T11:59:01;0.80;;;0.47;;
60030;SDS011;45901;47.600;9.890;2023-03-14T12:01:34;1.30;;;0.40;;
60030;SDS011;45901;47.600;9.890;2023-03-14T12:04:19;0.40;;;0.30;;
60030;SDS011;45901;47.600;9.890;2023-03-14T12:06:58;0.50;;;0.43;;
60030;SDS011;45901;47.600;9.890;2023-03-14T12:09:35;0.77;;;0.47;;
60030;SDS011;45901;47.600;9.890;2023-03-14T12:12:03;0.73;;;0.40;;
60030;SDS011;45901;47.600;9.890;2023-03-14T12:14:34;0.67;;;0.40;;
60030;SDS011;45901;47.600;9.890;2023-03-14T12:17:04;1.03;;;0.47;;
60030;SDS011;45901;47.600;9.890;2023-03-14T12:19:39;0.30;;;0.30;;
60030;SDS011;45901;47.600;9.890;2023-03-14T12:22:12;1.53;;;0.40;;
60030;SDS011;45901;47.600;9.890;2023-03-14T12:24:55;4.40;;;0.60;;
60030;SDS011;45901;47.600;9.890;2023-03-14T12:27:47;2.30;;;0.40;;
60030;SDS011;45901;47.600;9.890;2023-03-14T12:30:32;2.57;;;0.70;;
60030;SDS011;45901;47.600;9.890;2023-03-14T12:35:58;0.40;;;0.30;;
60030;SDS011;45901;47.600;9.890;2023-03-14T12:38:37;1.40;;;0.43;;
60030;SDS011;45901;47.600;9.890;2023-03-14T12:41:36;0.47;;;0.30;;
60030;SDS011;45901;47.600;9.890;2023-03-14T12:50:24;3.03;;;0.80;;
60030;SDS011;45901;47.600;9.890;2023-03-14T12:53:07;1.33;;;0.47;;
60030;SDS011;45901;47.600;9.890;2023-03-14T12:56:26;0.77;;;0.20;;
60030;SDS011;45901;47.600;9.890;2023-03-14T13:02:10;1.17;;;0.40;;
60030;SDS011;45901;47.600;9.890;2023-03-14T13:04:51;0.60;;;0.20;;
60030;SDS011;45901;47.600;9.890;2023-03-14T13:07:34;0.33;;;0.20;;
60030;SDS011;45901;47.600;9.890;2023-03-14T13:10:24;0.53;;;0.20;;
60030;SDS011;45901;47.600;9.890;2023-03-14T13:12:56;1.17;;;0.40;;
60030;SDS011;45901;47.600;9.890;2023-03-14T13:15:29;0.77;;;0.20;;
60030;SDS011;45901;47.600;9.890;2023-03-14T13:18:02;0.27;;;0.20;;
60030;SDS011;45901;47.600;9.890;2023-03-14T13:20:40;2.57;;;0.27;;
60030;SDS011;45901;47.600;9.890;2023-03-14T13:23:21;1.10;;;0.40;;
60030;SDS011;45901;47.600;9.890;2023-03-14T13:25:51;0.80;;;0.30;;
60030;SDS011;45901;47.600;9.890;2023-03-14T13:31:12;0.97;;;0.40;;
60030;SDS011;45901;47.600;9.890;2023-03-14T13:33:56;0.17;;;0.10;;
60030;SDS011;45901;47.600;9.890;2023-03-14T13:36:26;0.60;;;0.23;;
60030;SDS011;45901;47.600;9.890;2023-03-14T13:38:57;0.23;;;0.20;;
60030;SDS011;45901;47.600;9.890;2023-03-14T13:41:26;0.80;;;0.20;;
60030;SDS011;45901;47.600;9.890;2023-03-14T13:43:57;0.53;;;0.20;;
60030;SDS011;45901;47.600;9.890;2023-03-14T13:46:30;0.43;;;0.20;;
60030;SDS011;45901;47.600;9.890;2023-03-14T13:49:00;0.57;;;0.20;;
60030;SDS011;45901;47.600;9.890;2023-03-14T13:51:32;1.43;;;0.33;;
60030;SDS011;45901;47.600;9.890;2023-03-14T13:53:59;0.50;;;0.20;;
60030;SDS011;45901;47.600;9.890;2023-03-14T13:56:28;0.77;;;0.33;;
60030;SDS011;45901;47.600;9.890;2023-03-14T13:58:59;0.20;;;0.20;;
60030;SDS011;45901;47.600;9.890;2023-03-14T14:01:27;0.63;;;0.20;;
60030;SDS011;45901;47.600;9.890;2023-03-14T14:03:57;0.40;;;0.40;;
60030;SDS011;45901;47.600;9.890;2023-03-14T14:06:34;0.40;;;0.20;;
60030;SDS011;45901;47.600;9.890;2023-03-14T14:09:09;1.10;;;0.40;;
60030;SDS011;45901;47.600;9.890;2023-03-14T14:11:41;0.33;;;0.30;;
60030;SDS011;45901;47.600;9.890;2023-03-14T14:14:14;1.23;;;0.40;;
60030;SDS011;45901;47.600;9.890;2023-03-14T14:16:45;1.17;;;0.40;;
60030;SDS011;45901;47.600;9.890;2023-03-14T14:19:15;1.40;;;0.40;;
60030;SDS011;45901;47.600;9.890;2023-03-14T14:21:46;0.87;;;0.70;;
60030;SDS011;45901;47.600;9.890;2023-03-14T14:24:14;3.50;;;0.60;;
60030;SDS011;45901;47.600;9.890;2023-03-14T14:26:46;2.63;;;0.40;;
60030;SDS011;45901;47.600;9.890;2023-03-14T14:29:20;0.53;;;0.20;;
60030;SDS011;45901;47.600;9.890;2023-03-14T14:32:03;0.97;;;0.40;;
60030;SDS011;45901;47.600;9.890;2023-03-14T14:34:39;2.67;;;0.50;;
60030;SDS011;45901;47.600;9.890;2023-03-14T14:37:18;2.30;;;0.80;;
60030;SDS011;45901;47.600;9.890;2023-03-14T14:39:47;0.93;;;0.40;;
60030;SDS011;45901;47.600;9.890;2023-03-14T14:42:18;0.87;;;0.33;;
60030;SDS011;45901;47.600;9.890;2023-03-14T14:44:48;2.10;;;0.50;;
60030;SDS011;45901;47.600;9.890;2023-03-14T14:47:18;1.40;;;0.40;;
60030;SDS011;45901;47.600;9.890;2023-03-14T14:49:49;1.50;;;0.70;;
60030;SDS011;45901;47.600;9.890;2023-03-14T14:52:19;1.60;;;0.80;;
60030;SDS011;45901;47.600;9.890;2023-03-14T14:54:50;2.17;;;0.70;;
60030;SDS011;45901;47.600;9.890;2023-03-14T14:57:22;8.73;;;1.40;;
60030;SDS011;45901;47.600;9.890;2023-03-14T14:59:54;2.73;;;0.80;;
60030;SDS011;45901;47.600;9.890;2023-03-14T15:02:30;4.00;;;1.00;;
60030;SDS011;45901;47.600;9.890;2023-03-14T15:05:05;4.93;;;1.17;;
60030;SDS011;45901;47.600;9.890;2023-03-14T15:07:39;5.30;;;0.80;;
60030;SDS011;45901;47.600;9.890;2023-03-14T15:10:09;3.80;;;0.80;;
60030;SDS011;45901;47.600;9.890;2023-03-14T15:12:38;6.37;;;1.00;;
60030;SDS011;45901;47.600;9.890;2023-03-14T15:15:06;4.93;;;1.40;;
60030;SDS011;45901;47.600;9.890;2023-03-14T15:17:34;5.70;;;1.40;;
60030;SDS011;45901;47.600;9.890;2023-03-14T15:20:02;4.50;;;1.33;;
60030;SDS011;45901;47.600;9.890;2023-03-14T15:22:30;7.00;;;1.20;;
60030;SDS011;45901;47.600;9.890;2023-03-14T15:24:59;2.07;;;0.63;;